sensor_id;sensor_type;location;lat;lon;timestamp;P1;durP1;ratioP1;P2;durP2;ratioP2
78053;SDS011;67726;45.636;11.752;2023-04-24T00:00:05;34.30;;;17.42;;
78053;SDS011;67726;45.636;11.752;2023-04-24T00:02:34;31.10;;;18.23;;
78053;SDS011;67726;45.636;11.752;2023-04-24T00:05:02;32.25;;;18.13;;
78053;SDS011;67726;45.636;11.752;2023-04-24T00:07:29;34.97;;;17.42;;
78053;SDS011;67726;45.636;11.752;2023-04-24T00:09:55;28.27;;;16.57;;
78053;SDS011;67726;45.636;11.752;2023-04-24T00:12:21;28.55;;;16.73;;
78053;SDS011;67726;45.636;11.752;2023-04-24T00:14:46;32.75;;;18.90;;
78053;SDS011;67726;45.636;11.752;2023-04-24T00:17:12;26.43;;;16.00;;
78053;SDS011;67726;45.636;11.752;2023-04-24T00:19:38;27.60;;;16.20;;
78053;SDS011;67726;45.636;11.752;2023-04-24T00:22:04;31.83;;;17.63;;
78053;SDS011;67726;45.636;11.752;2023-04-24T00:24:30;33.78;;;16.75;;
78053;SDS011;67726;45.636;11.752;2023-04-24T00:26:56;33.13;;;18.58;;
78053;SDS011;67726;45.636;11.752;2023-04-24T00:29:22;27.50;;;15.90;;
78053;SDS011;67726;45.636;11.752;2023-04-24T00:31:47;27.90;;;16.50;;
78053;SDS011;67726;45.636;11.752;2023-04-24T00:34:13;24.97;;;15.83;;
78053;SDS011;67726;45.636;11.752;2023-04-24T00:36:39;25.13;;;15.50;;
78053;SDS011;67726;45.636;11.752;2023-04-24T00:39:05;24.40;;;14.23;;
78053;SDS011;67726;45.636;11.752;2023-04-24T00:41:35;29.10;;;16.85;;
78053;SDS011;67726;45.636;11.752;2023-04-24T00:44:01;26.88;;;14.48;;
78053;SDS011;67726;45.636;11.752;2023-04-24T00:46:26;25.80;;;15.87;;
78053;SDS011;67726;45.636;11.752;2023-04-24T00:48:52;28.13;;;16.00;;
78053;SDS011;67726;45.636;11.752;2023-04-24T00:51:18;27.02;;;16.02;;
78053;SDS011;67726;45.636;11.752;2023-04-24T00:53:44;27.83;;;16.53;;
78053;SDS011;67726;45.636;11.752;2023-04-24T00:56:10;26.83;;;16.45;;
78053;SDS011;67726;45.636;11.752;2023-04-24T00:58:36;26.45;;;16.92;;
78053;SDS011;67726;45.636;11.752;2023-04-24T01:01:03;29.60;;;16.38;;
78053;SDS011;67726;45.636;11.752;2023-04-24T01:03:32;29.13;;;16.37;;
78053;SDS011;67726;45.636;11.752;2023-04-24T01:05:58;28.25;;;16.52;;
78053;SDS011;67726;45.636;11.752;2023-04-24T01:08:24;27.90;;;16.45;;
78053;SDS011;67726;45.636;11.752;2023-04-24T01:10:53;26.92;;;16.73;;
78053;SDS011;67726;45.636;11.752;2023-04-24T01:13:19;27.73;;;16.23;;
78053;SDS011;67726;45.636;11.752;2023-04-24T01:15:45;24.85;;;15.48;;
78053;SDS011;67726;45.636;11.752;2023-04-24T01:18:13;25.25;;;15.63;;
78053;SDS011;67726;45.636;11.752;2023-04-24T01:20:40;24.90;;;14.85;;
78053;SDS011;67726;45.636;11.752;2023-04-24T01:23:08;28.10;;;15.50;;
78053;SDS011;67726;45.636;11.752;2023-04-24T01:25:35;27.47;;;14.10;;
78053;SDS011;67726;45.636;11.752;2023-04-24T01:28:01;26.38;;;14.80;;
78053;SDS011;67726;45.636;11.752;2023-04-24T01:30:27;23.83;;;15.00;;
78053;SDS011;67726;45.636;11.752;2023-04-24T01:32:53;23.15;;;13.90;;
78053;SDS011;67726;45.636;11.752;2023-04-24T01:35:20;22.50;;;13.00;;
78053;SDS011;67726;45.636;11.752;2023-04-24T01:37:46;21.90;;;12.82;;
78053;SDS011;67726;45.636;11.752;2023-04-24T01:40:11;23.67;;;13.73;;
78053;SDS011;67726;45.636;11.752;2023-04-24T01:42:38;21.73;;;12.70;;
78053;SDS011;67726;45.636;11.752;2023-04-24T01:45:06;19.95;;;12.45;;
78053;SDS011;67726;45.636;11.752;2023-04-24T01:47:35;23.80;;;13.32;;
78053;SDS011;67726;45.636;11.752;2023-04-24T01:50:01;22.67;;;13.40;;
78053;SDS011;67726;45.636;11.752;2023-04-24T01:52:27;23.03;;;12.60;;
78053;SDS011;67726;45.636;11.752;2023-04-24T01:54:59;23.45;;;12.30;;
78053;SDS011;67726;45.636;11.752;2023-04-24T01:57:25;20.60;;;12.88;;
78053;SDS011;67726;45.636;11.752;2023-04-24T01:59:51;21.08;;;12.00;;
78053;SDS011;67726;45.636;11.752;2023-04-24T02:02:17;22.97;;;12.17;;
78053;SDS011;67726;45.636;11.752;2023-04-24T02:04:43;18.80;;;11.80;;
78053;SDS011;67726;45.636;11.752;2023-04-24T02:07:08;18.42;;;11.25;;
78053;SDS011;67726;45.636;11.752;2023-04-24T02:09:34;20.00;;;12.17;;
78053;SDS011;67726;45.636;11.752;2023-04-24T02:12:00;16.90;;;10.90;;
78053;SDS011;67726;45.636;11.752;2023-04-24T02:14:25;18.67;;;11.57;;
78053;SDS011;67726;45.636;11.752;2023-04-24T02:16:51;20.00;;;11.63;;
78053;SDS011;67726;45.636;11.752;2023-04-24T02:19:18;18.75;;;12.10;;
78053;SDS011;67726;45.636;11.752;2023-04-24T02:21:44;17.38;;;10.60;;
78053;SDS011;67726;45.636;11.752;2023-04-24T02:24:09;15.00;;;10.23;;
78053;SDS011;67726;45.636;11.752;2023-04-24T02:26:35;18.35;;;10.73;;
78053;SDS011;67726;45.636;11.752;2023-04-24T02:29:01;18.47;;;10.80;;
78053;SDS011;67726;45.636;11.752;2023-04-24T02:31:26;15.95;;;10.07;;
78053;SDS011;67726;45.636;11.752;2023-04-24T02:33:52;18.87;;;9.90;;
78053;SDS011;67726;45.636;11.752;2023-04-24T02:36:18;17.98;;;10.27;;
78053;SDS011;67726;45.636;11.752;2023-04-24T02:38:43;17.47;;;10.23;;
78053;SDS011;67726;45.636;11.752;2023-04-24T02:41:09;16.55;;;10.88;;
78053;SDS011;67726;45.636;11.752;2023-04-24T02:43:35;20.13;;;10.73;;
78053;SDS011;67726;45.636;11.752;2023-04-24T02:46:00;17.38;;;11.02;;
78053;SDS011;67726;45.636;11.752;2023-04-24T02:48:26;16.93;;;10.40;;
78053;SDS011;67726;45.636;11.752;2023-04-24T02:50:52;16.67;;;10.13;;
78053;SDS011;67726;45.636;11.752;2023-04-24T02:53:18;15.43;;;9.63;;
78053;SDS011;67726;45.636;11.752;2023-04-24T02:55:43;17.80;;;10.57;;
78053;SDS011;67726;45.636;11.752;2023-04-24T02:58:09;15.43;;;9.57;;
78053;SDS011;67726;45.636;11.752;2023-04-24T03:00:37;16.67;;;9.40;;
78053;SDS011;67726;45.636;11.752;2023-04-24T03:03:03;16.83;;;8.75;;
78053;SDS011;67726;45.636;11.752;2023-04-24T03:05:30;14.70;;;8.45;;
78053;SDS011;67726;45.636;11.752;2023-04-24T03:07:56;14.65;;;9.10;;
78053;SDS011;67726;45.636;11.752;2023-04-24T03:10:22;15.97;;;9.93;;
78053;SDS011;67726;45.636;11.752;2023-04-24T03:12:47;15.95;;;9.45;;
78053;SDS011;67726;45.636;11.752;2023-04-24T03:15:13;14.00;;;9.20;;
78053;SDS011;67726;45.636;11.752;2023-04-24T03:17:39;14.52;;;9.25;;
78053;SDS011;67726;45.636;11.752;2023-04-24T03:20:05;16.63;;;9.13;;
78053;SDS011;67726;45.636;11.752;2023-04-24T03:22:33;12.70;;;8.63;;
78053;SDS011;67726;45.636;11.752;2023-04-24T03:24:58;16.65;;;9.00;;
78053;SDS011;67726;45.636;11.752;2023-04-24T03:27:24;15.48;;;9.07;;
78053;SDS011;67726;45.636;11.752;2023-04-24T03:29:50;14.90;;;8.67;;
78053;SDS011;67726;45.636;11.752;2023-04-24T03:32:20;14.38;;;9.20;;
78053;SDS011;67726;45.636;11.752;2023-04-24T03:34:47;13.32;;;8.95;;
78053;SDS011;67726;45.636;11.752;2023-04-24T03:37:13;14.40;;;8.57;;
78053;SDS011;67726;45.636;11.752;2023-04-24T03:39:40;13.60;;;8.80;;
78053;SDS011;67726;45.636;11.752;2023-04-24T03:42:05;13.65;;;8.93;;
78053;SDS011;67726;45.636;11.752;2023-04-24T03:44:31;16.13;;;9.57;;
78053;SDS011;67726;45.636;11.752;2023-04-24T03:46:58;15.27;;;8.85;;
78053;SDS011;67726;45.636;11.752;2023-04-24T03:49:23;15.33;;;9.23;;
78053;SDS011;67726;45.636;11.752;2023-04-24T03:51:49;13.20;;;9.13;;
78053;SDS011;67726;45.636;11.752;2023-04-24T03:54:15;16.45;;;8.55;;
78053;SDS011;67726;45.636;11.752;2023-04-24T03:56:41;14.52;;;9.57;;
78053;SDS011;67726;45.636;11.752;2023-04-24T03:59:07;17.10;;;10.90;;
78053;SDS011;67726;45.636;11.752;2023-04-24T04:01:32;20.67;;;11.30;;
78053;SDS011;67726;45.636;11.752;2023-04-24T04:04:01;16.50;;;11.07;;
78053;SDS011;67726;45.636;11.752;2023-04-24T04:06:27;18.02;;;11.50;;
78053;SDS011;67726;45.636;11.752;2023-04-24T04:08:53;22.80;;;12.82;;
78053;SDS011;67726;45.636;11.752;2023-04-24T04:11:19;23.10;;;12.97;;
78053;SDS011;67726;45.636;11.752;2023-04-24T04:13:44;21.27;;;12.57;;
78053;SDS011;67726;45.636;11.752;2023-04-24T04:16:12;23.60;;;13.87;;
78053;SDS011;67726;45.636;11.752;2023-04-24T04:18:38;30.23;;;14.13;;
78053;SDS011;67726;45.636;11.752;2023-04-24T04:21:04;28.17;;;15.00;;
78053;SDS011;67726;45.636;11.752;2023-04-24T04:23:30;33.37;;;15.30;;
78053;SDS011;67726;45.636;11.752;2023-04-24T04:25:57;24.63;;;15.35;;
78053;SDS011;67726;45.636;11.752;2023-04-24T04:28:22;20.95;;;12.55;;
78053;SDS011;67726;45.636;11.752;2023-04-24T04:30:49;31.67;;;16.35;;
78053;SDS011;67726;45.636;11.752;2023-04-24T04:33:19;32.85;;;15.07;;
78053;SDS011;67726;45.636;11.752;2023-04-24T04:35:45;35.83;;;16.10;;
78053;SDS011;67726;45.636;11.752;2023-04-24T04:38:14;36.00;;;16.98;;
78053;SDS011;67726;45.636;11.752;2023-04-24T04:40:40;42.58;;;17.50;;
78053;SDS011;67726;45.636;11.752;2023-04-24T04:43:06;41.50;;;17.67;;
78053;SDS011;67726;45.636;11.752;2023-04-24T04:45:31;37.30;;;16.70;;
78053;SDS011;67726;45.636;11.752;2023-04-24T04:47:59;36.22;;;17.52;;
78053;SDS011;67726;45.636;11.752;2023-04-24T04:50:26;39.25;;;18.70;;
78053;SDS011;67726;45.636;11.752;2023-04-24T04:52:52;34.03;;;18.30;;
78053;SDS011;67726;45.636;11.752;2023-04-24T04:55:17;36.40;;;19.60;;
78053;SDS011;67726;45.636;11.752;2023-04-24T04:57:45;59.50;;;21.02;;
78053;SDS011;67726;45.636;11.752;2023-04-24T05:00:11;36.15;;;20.17;;
78053;SDS011;67726;45.636;11.752;2023-04-24T05:02:37;45.03;;;19.73;;
78053;SDS011;67726;45.636;11.752;2023-04-24T05:05:04;39.67;;;19.93;;
78053;SDS011;67726;45.636;11.752;2023-04-24T05:07:30;39.30;;;21.45;;
78053;SDS011;67726;45.636;11.752;2023-04-24T05:09:56;45.22;;;20.90;;
78053;SDS011;67726;45.636;11.752;2023-04-24T05:12:22;48.03;;;20.10;;
78053;SDS011;67726;45.636;11.752;2023-04-24T05:14:47;50.60;;;22.98;;
78053;SDS011;67726;45.636;11.752;2023-04-24T05:17:13;52.60;;;22.67;;
78053;SDS011;67726;45.636;11.752;2023-04-24T05:19:40;45.55;;;22.40;;
78053;SDS011;67726;45.636;11.752;2023-04-24T05:22:05;43.40;;;21.92;;
78053;SDS011;67726;45.636;11.752;2023-04-24T05:24:35;50.87;;;22.20;;
78053;SDS011;67726;45.636;11.752;2023-04-24T05:27:04;45.35;;;21.25;;
78053;SDS011;67726;45.636;11.752;2023-04-24T05:29:30;47.88;;;21.13;;
78053;SDS011;67726;45.636;11.752;2023-04-24T05:31:57;57.13;;;22.10;;
78053;SDS011;67726;45.636;11.752;2023-04-24T05:34:23;61.25;;;22.85;;
78053;SDS011;67726;45.636;11.752;2023-04-24T05:36:49;59.03;;;21.70;;
78053;SDS011;67726;45.636;11.752;2023-04-24T05:39:15;63.95;;;24.30;;
78053;SDS011;67726;45.636;11.752;2023-04-24T05:41:41;67.35;;;23.27;;
78053;SDS011;67726;45.636;11.752;2023-04-24T05:44:07;52.57;;;22.70;;
78053;SDS011;67726;45.636;11.752;2023-04-24T05:46:32;47.87;;;23.00;;
78053;SDS011;67726;45.636;11.752;2023-04-24T05:48:58;64.17;;;20.80;;
78053;SDS011;67726;45.636;11.752;2023-04-24T05:51:24;49.25;;;21.25;;
78053;SDS011;67726;45.636;11.752;2023-04-24T05:53:50;65.75;;;19.90;;
78053;SDS011;67726;45.636;11.752;2023-04-24T05:56:16;68.53;;;22.13;;
78053;SDS011;67726;45.636;11.752;2023-04-24T05:58:42;49.58;;;21.73;;
78053;SDS011;67726;45.636;11.752;2023-04-24T06:01:08;54.63;;;21.67;;
78053;SDS011;67726;45.636;11.752;2023-04-24T06:03:34;43.57;;;19.57;;
78053;SDS011;67726;45.636;11.752;2023-04-24T06:06:00;55.45;;;20.08;;
78053;SDS011;67726;45.636;11.752;2023-04-24T06:08:25;74.70;;;21.80;;
78053;SDS011;67726;45.636;11.752;2023-04-24T06:10:51;76.25;;;22.17;;
78053;SDS011;67726;45.636;11.752;2023-04-24T06:13:17;55.90;;;22.67;;
78053;SDS011;67726;45.636;11.752;2023-04-24T06:15:43;65.10;;;24.13;;
78053;SDS011;67726;45.636;11.752;2023-04-24T06:18:09;53.63;;;22.10;;
78053;SDS011;67726;45.636;11.752;2023-04-24T06:20:37;44.33;;;21.65;;
78053;SDS011;67726;45.636;11.752;2023-04-24T06:23:03;54.47;;;21.80;;
78053;SDS011;67726;45.636;11.752;2023-04-24T06:25:29;63.25;;;22.23;;
78053;SDS011;67726;45.636;11.752;2023-04-24T06:27:55;46.87;;;18.17;;
78053;SDS011;67726;45.636;11.752;2023-04-24T06:30:21;35.53;;;18.00;;
78053;SDS011;67726;45.636;11.752;2023-04-24T06:32:47;41.13;;;17.42;;
78053;SDS011;67726;45.636;11.752;2023-04-24T06:35:13;35.40;;;17.73;;
78053;SDS011;67726;45.636;11.752;2023-04-24T06:37:39;50.20;;;18.88;;
78053;SDS011;67726;45.636;11.752;2023-04-24T06:40:06;43.42;;;19.02;;
78053;SDS011;67726;45.636;11.752;2023-04-24T06:42:33;50.07;;;19.27;;
78053;SDS011;67726;45.636;11.752;2023-04-24T06:44:59;39.40;;;18.23;;
78053;SDS011;67726;45.636;11.752;2023-04-24T06:47:25;48.25;;;18.95;;
78053;SDS011;67726;45.636;11.752;2023-04-24T06:49:51;37.00;;;17.40;;
78053;SDS011;67726;45.636;11.752;2023-04-24T06:52:17;37.30;;;18.30;;
78053;SDS011;67726;45.636;11.752;2023-04-24T06:54:43;28.70;;;16.60;;
78053;SDS011;67726;45.636;11.752;2023-04-24T06:57:09;24.57;;;13.33;;
78053;SDS011;67726;45.636;11.752;2023-04-24T06:59:35;20.80;;;11.50;;
78053;SDS011;67726;45.636;11.752;2023-04-24T07:02:01;22.88;;;11.45;;
78053;SDS011;67726;45.636;11.752;2023-04-24T07:04:27;24.10;;;11.65;;
78053;SDS011;67726;45.636;11.752;2023-04-24T07:06:53;24.93;;;11.80;;
78053;SDS011;67726;45.636;11.752;2023-04-24T07:09:21;30.48;;;12.45;;
78053;SDS011;67726;45.636;11.752;2023-04-24T07:11:47;32.15;;;12.73;;
78053;SDS011;67726;45.636;11.752;2023-04-24T07:14:13;30.02;;;12.77;;
78053;SDS011;67726;45.636;11.752;2023-04-24T07:16:39;27.43;;;13.27;;
78053;SDS011;67726;45.636;11.752;2023-04-24T07:19:05;27.58;;;12.55;;
78053;SDS011;67726;45.636;11.752;2023-04-24T07:21:31;32.03;;;14.18;;
78053;SDS011;67726;45.636;11.752;2023-04-24T07:23:57;25.23;;;12.00;;
78053;SDS011;67726;45.636;11.752;2023-04-24T07:26:23;24.70;;;12.23;;
78053;SDS011;67726;45.636;11.752;2023-04-24T07:28:50;19.60;;;10.50;;
78053;SDS011;67726;45.636;11.752;2023-04-24T07:31:15;14.23;;;8.50;;
78053;SDS011;67726;45.636;11.752;2023-04-24T07:33:41;12.82;;;6.45;;
78053;SDS011;67726;45.636;11.752;2023-04-24T07:36:06;8.80;;;5.10;;
78053;SDS011;67726;45.636;11.752;2023-04-24T07:38:32;8.60;;;4.57;;
78053;SDS011;67726;45.636;11.752;2023-04-24T07:40:58;8.30;;;5.03;;
78053;SDS011;67726;45.636;11.752;2023-04-24T07:43:23;8.18;;;4.40;;
78053;SDS011;67726;45.636;11.752;2023-04-24T07:45:50;8.00;;;3.40;;
78053;SDS011;67726;45.636;11.752;2023-04-24T07:48:16;7.60;;;2.75;;
78053;SDS011;67726;45.636;11.752;2023-04-24T07:50:42;7.15;;;3.28;;
78053;SDS011;67726;45.636;11.752;2023-04-24T07:53:09;6.47;;;3.57;;
78053;SDS011;67726;45.636;11.752;2023-04-24T07:55:35;8.63;;;4.72;;
78053;SDS011;67726;45.636;11.752;2023-04-24T07:58:00;7.53;;;4.28;;
78053;SDS011;67726;45.636;11.752;2023-04-24T08:00:26;7.13;;;4.00;;
78053;SDS011;67726;45.636;11.752;2023-04-24T08:02:52;8.30;;;4.60;;
78053;SDS011;67726;45.636;11.752;2023-04-24T08:05:17;8.47;;;4.37;;
78053;SDS011;67726;45.636;11.752;2023-04-24T08:07:43;7.83;;;3.80;;
78053;SDS011;67726;45.636;11.752;2023-04-24T08:10:11;8.23;;;3.80;;
78053;SDS011;67726;45.636;11.752;2023-04-24T08:12:37;5.72;;;3.10;;
78053;SDS011;67726;45.636;11.752;2023-04-24T08:15:03;5.53;;;2.80;;
78053;SDS011;67726;45.636;11.752;2023-04-24T08:17:29;5.53;;;2.58;;
78053;SDS011;67726;45.636;11.752;2023-04-24T08:19:55;6.37;;;3.20;;
78053;SDS011;67726;45.636;11.752;2023-04-24T08:22:26;6.47;;;3.60;;
78053;SDS011;67726;45.636;11.752;2023-04-24T08:24:53;8.27;;;3.90;;
78053;SDS011;67726;45.636;11.752;2023-04-24T08:27:19;7.35;;;3.80;;
78053;SDS011;67726;45.636;11.752;2023-04-24T08:29:45;6.40;;;3.67;;
78053;SDS011;67726;45.636;11.752;2023-04-24T08:32:11;5.87;;;2.30;;
78053;SDS011;67726;45.636;11.752;2023-04-24T08:34:36;5.33;;;2.40;;
78053;SDS011;67726;45.636;11.752;2023-04-24T08:37:02;4.75;;;2.35;;
78053;SDS011;67726;45.636;11.752;2023-04-24T08:39:28;4.60;;;2.33;;
78053;SDS011;67726;45.636;11.752;2023-04-24T08:41:55;4.97;;;2.30;;
78053;SDS011;67726;45.636;11.752;2023-04-24T08:44:21;5.85;;;2.58;;
78053;SDS011;67726;45.636;11.752;2023-04-24T08:46:49;5.00;;;2.30;;
78053;SDS011;67726;45.636;11.752;2023-04-24T08:49:16;5.90;;;3.30;;
78053;SDS011;67726;45.636;11.752;2023-04-24T08:51:44;6.63;;;3.55;;
78053;SDS011;67726;45.636;11.752;2023-04-24T08:54:12;6.90;;;4.15;;
78053;SDS011;67726;45.636;11.752;2023-04-24T08:56:38;7.25;;;3.80;;
78053;SDS011;67726;45.636;11.752;2023-04-24T08:59:08;7.10;;;3.70;;
78053;SDS011;67726;45.636;11.752;2023-04-24T09:01:34;6.47;;;3.60;;
78053;SDS011;67726;45.636;11.752;2023-04-24T09:04:02;8.27;;;4.10;;
78053;SDS011;67726;45.636;11.752;2023-04-24T09:06:29;7.03;;;3.37;;
78053;SDS011;67726;45.636;11.752;2023-04-24T09:08:57;6.68;;;3.78;;
78053;SDS011;67726;45.636;11.752;2023-04-24T09:11:26;7.55;;;3.55;;
78053;SDS011;67726;45.636;11.752;2023-04-24T09:13:53;7.63;;;3.80;;
78053;SDS011;67726;45.636;11.752;2023-04-24T09:16:19;7.03;;;3.63;;
78053;SDS011;67726;45.636;11.752;2023-04-24T09:18:45;7.50;;;3.50;;
78053;SDS011;67726;45.636;11.752;2023-04-24T09:21:11;5.85;;;3.47;;
78053;SDS011;67726;45.636;11.752;2023-04-24T09:23:37;6.45;;;3.70;;
78053;SDS011;67726;45.636;11.752;2023-04-24T09:26:03;6.22;;;3.78;;
78053;SDS011;67726;45.636;11.752;2023-04-24T09:28:34;7.00;;;3.00;;
78053;SDS011;67726;45.636;11.752;2023-04-24T09:31:02;5.22;;;2.50;;
78053;SDS011;67726;45.636;11.752;2023-04-24T09:33:35;6.20;;;2.42;;
78053;SDS011;67726;45.636;11.752;2023-04-24T09:36:01;4.97;;;2.60;;
78053;SDS011;67726;45.636;11.752;2023-04-24T09:38:34;5.22;;;2.40;;
78053;SDS011;67726;45.636;11.752;2023-04-24T09:41:02;4.13;;;1.83;;
78053;SDS011;67726;45.636;11.752;2023-04-24T09:43:29;4.25;;;2.00;;
78053;SDS011;67726;45.636;11.752;2023-04-24T09:45:56;5.75;;;2.17;;
78053;SDS011;67726;45.636;11.752;2023-04-24T09:48:33;5.28;;;2.10;;
78053;SDS011;67726;45.636;11.752;2023-04-24T09:51:04;4.50;;;1.70;;
78053;SDS011;67726;45.636;11.752;2023-04-24T09:53:35;4.70;;;2.05;;
78053;SDS011;67726;45.636;11.752;2023-04-24T09:56:08;8.30;;;2.00;;
78053;SDS011;67726;45.636;11.752;2023-04-24T09:58:35;5.75;;;1.80;;
78053;SDS011;67726;45.636;11.752;2023-04-24T10:01:01;3.63;;;1.57;;
78053;SDS011;67726;45.636;11.752;2023-04-24T10:03:29;3.80;;;1.70;;
78053;SDS011;67726;45.636;11.752;2023-04-24T10:06:02;4.57;;;2.00;;
78053;SDS011;67726;45.636;11.752;2023-04-24T10:08:34;4.35;;;2.00;;
78053;SDS011;67726;45.636;11.752;2023-04-24T10:11:01;3.47;;;1.60;;
78053;SDS011;67726;45.636;11.752;2023-04-24T10:13:27;4.43;;;1.75;;
78053;SDS011;67726;45.636;11.752;2023-04-24T10:15:53;3.38;;;1.20;;
78053;SDS011;67726;45.636;11.752;2023-04-24T10:18:20;2.88;;;1.38;;
78053;SDS011;67726;45.636;11.752;2023-04-24T10:20:46;2.80;;;1.30;;
78053;SDS011;67726;45.636;11.752;2023-04-24T10:23:12;2.67;;;1.20;;
78053;SDS011;67726;45.636;11.752;2023-04-24T10:25:37;2.83;;;1.30;;
78053;SDS011;67726;45.636;11.752;2023-04-24T10:28:04;3.03;;;1.50;;
78053;SDS011;67726;45.636;11.752;2023-04-24T10:30:31;2.40;;;1.10;;
78053;SDS011;67726;45.636;11.752;2023-04-24T10:33:04;3.55;;;1.42;;
78053;SDS011;67726;45.636;11.752;2023-04-24T10:35:32;3.28;;;1.27;;
78053;SDS011;67726;45.636;11.752;2023-04-24T10:40:32;4.33;;;1.43;;
78053;SDS011;67726;45.636;11.752;2023-04-24T10:43:01;3.15;;;1.40;;
78053;SDS011;67726;45.636;11.752;2023-04-24T10:45:28;3.55;;;1.50;;
78053;SDS011;67726;45.636;11.752;2023-04-24T10:48:04;3.63;;;1.27;;
78053;SDS011;67726;45.636;11.752;2023-04-24T10:53:13;4.97;;;1.50;;
78053;SDS011;67726;45.636;11.752;2023-04-24T10:55:47;3.65;;;1.42;;
78053;SDS011;67726;45.636;11.752;2023-04-24T10:58:15;4.60;;;1.75;;
78053;SDS011;67726;45.636;11.752;2023-04-24T11:00:47;3.40;;;1.60;;
78053;SDS011;67726;45.636;11.752;2023-04-24T11:06:08;3.28;;;1.33;;
78053;SDS011;67726;45.636;11.752;2023-04-24T11:08:38;3.72;;;1.60;;
78053;SDS011;67726;45.636;11.752;2023-04-24T11:11:12;3.63;;;1.25;;
78053;SDS011;67726;45.636;11.752;2023-04-24T11:16:20;3.80;;;1.50;;
78053;SDS011;67726;45.636;11.752;2023-04-24T11:18:51;4.75;;;1.60;;
78053;SDS011;67726;45.636;11.752;2023-04-24T11:21:24;3.10;;;1.60;;
78053;SDS011;67726;45.636;11.752;2023-04-24T11:23:51;4.30;;;1.90;;
78053;SDS011;67726;45.636;11.752;2023-04-24T11:26:23;4.03;;;1.60;;
78053;SDS011;67726;45.636;11.752;2023-04-24T11:29:05;5.65;;;1.70;;
78053;SDS011;67726;45.636;11.752;2023-04-24T11:34:08;4.43;;;2.13;;
78053;SDS011;67726;45.636;11.752;2023-04-24T11:36:35;5.20;;;2.03;;
78053;SDS011;67726;45.636;11.752;2023-04-24T11:39:02;4.17;;;1.80;;
78053;SDS011;67726;45.636;11.752;2023-04-24T11:41:28;5.53;;;2.97;;
78053;SDS011;67726;45.636;11.752;2023-04-24T11:43:53;3.70;;;1.70;;
78053;SDS011;67726;45.636;11.752;2023-04-24T11:46:20;3.72;;;1.52;;
78053;SDS011;67726;45.636;11.752;2023-04-24T11:48:46;4.00;;;1.80;;
78053;SDS011;67726;45.636;11.752;2023-04-24T11:51:13;4.20;;;1.43;;
78053;SDS011;67726;45.636;11.752;2023-04-24T11:53:39;3.13;;;1.40;;
78053;SDS011;67726;45.636;11.752;2023-04-24T11:56:05;3.88;;;1.38;;
78053;SDS011;67726;45.636;11.752;2023-04-24T11:58:38;4.43;;;1.75;;
78053;SDS011;67726;45.636;11.752;2023-04-24T12:01:04;4.33;;;1.60;;
78053;SDS011;67726;45.636;11.752;2023-04-24T12:03:30;4.07;;;1.70;;
78053;SDS011;67726;45.636;11.752;2023-04-24T12:06:06;4.38;;;1.50;;
78053;SDS011;67726;45.636;11.752;2023-04-24T12:08:33;3.33;;;1.35;;
78053;SDS011;67726;45.636;11.752;2023-04-24T12:11:02;3.25;;;1.30;;
78053;SDS011;67726;45.636;11.752;2023-04-24T12:13:29;4.67;;;1.30;;
78053;SDS011;67726;45.636;11.752;2023-04-24T12:15:58;3.30;;;1.20;;
78053;SDS011;67726;45.636;11.752;2023-04-24T12:18:25;3.45;;;1.38;;
78053;SDS011;67726;45.636;11.752;2023-04-24T12:20:51;3.80;;;1.50;;
78053;SDS011;67726;45.636;11.752;2023-04-24T12:23:28;4.30;;;1.50;;
78053;SDS011;67726;45.636;11.752;2023-04-24T12:26:03;4.35;;;1.20;;
78053;SDS011;67726;45.636;11.752;2023-04-24T12:28:36;4.20;;;1.50;;
78053;SDS011;67726;45.636;11.752;2023-04-24T12:31:03;3.92;;;1.58;;
78053;SDS011;67726;45.636;11.752;2023-04-24T12:33:32;5.50;;;1.70;;
78053;SDS011;67726;45.636;11.752;2023-04-24T12:35:58;3.70;;;1.53;;
78053;SDS011;67726;45.636;11.752;2023-04-24T12:38:25;3.22;;;1.50;;
78053;SDS011;67726;45.636;11.752;2023-04-24T12:41:02;3.35;;;1.58;;
78053;SDS011;67726;45.636;11.752;2023-04-24T12:43:30;3.67;;;1.40;;
78053;SDS011;67726;45.636;11.752;2023-04-24T12:45:56;4.50;;;1.50;;
78053;SDS011;67726;45.636;11.752;2023-04-24T12:48:22;3.87;;;1.60;;
78053;SDS011;67726;45.636;11.752;2023-04-24T12:50:47;3.80;;;1.67;;
78053;SDS011;67726;45.636;11.752;2023-04-24T12:53:14;4.60;;;1.70;;
78053;SDS011;67726;45.636;11.752;2023-04-24T12:55:40;4.07;;;1.85;;
78053;SDS011;67726;45.636;11.752;2023-04-24T12:58:07;5.13;;;1.67;;
78053;SDS011;67726;45.636;11.752;2023-04-24T13:00:33;3.63;;;1.65;;
78053;SDS011;67726;45.636;11.752;2023-04-24T13:02:58;4.45;;;1.60;;
78053;SDS011;67726;45.636;11.752;2023-04-24T13:05:24;4.73;;;1.97;;
78053;SDS011;67726;45.636;11.752;2023-04-24T13:07:50;4.32;;;2.00;;
78053;SDS011;67726;45.636;11.752;2023-04-24T13:10:15;4.03;;;2.03;;
78053;SDS011;67726;45.636;11.752;2023-04-24T13:12:41;5.22;;;1.90;;
78053;SDS011;67726;45.636;11.752;2023-04-24T13:15:10;4.38;;;2.10;;
78053;SDS011;67726;45.636;11.752;2023-04-24T13:17:36;4.40;;;2.10;;
78053;SDS011;67726;45.636;11.752;2023-04-24T13:20:01;4.68;;;2.40;;
78053;SDS011;67726;45.636;11.752;2023-04-24T13:22:27;5.40;;;2.03;;
78053;SDS011;67726;45.636;11.752;2023-04-24T13:24:53;4.40;;;2.03;;
78053;SDS011;67726;45.636;11.752;2023-04-24T13:27:19;4.80;;;1.90;;
78053;SDS011;67726;45.636;11.752;2023-04-24T13:29:45;4.85;;;2.33;;
78053;SDS011;67726;45.636;11.752;2023-04-24T13:32:11;4.40;;;1.90;;
78053;SDS011;67726;45.636;11.752;2023-04-24T13:34:37;4.95;;;2.28;;
78053;SDS011;67726;45.636;11.752;2023-04-24T13:37:03;5.60;;;2.20;;
78053;SDS011;67726;45.636;11.752;2023-04-24T13:39:29;4.55;;;1.90;;
78053;SDS011;67726;45.636;11.752;2023-04-24T13:41:55;4.55;;;2.15;;
78053;SDS011;67726;45.636;11.752;2023-04-24T13:44:22;5.63;;;2.40;;
78053;SDS011;67726;45.636;11.752;2023-04-24T13:46:49;5.70;;;2.60;;
78053;SDS011;67726;45.636;11.752;2023-04-24T13:49:17;5.50;;;2.70;;
78053;SDS011;67726;45.636;11.752;2023-04-24T13:51:43;6.88;;;2.40;;
78053;SDS011;67726;45.636;11.752;2023-04-24T13:54:10;4.18;;;1.80;;
78053;SDS011;67726;45.636;11.752;2023-04-24T13:56:36;4.90;;;2.00;;
78053;SDS011;67726;45.636;11.752;2023-04-24T13:59:02;4.50;;;1.90;;
78053;SDS011;67726;45.636;11.752;2023-04-24T14:01:28;6.50;;;1.92;;
78053;SDS011;67726;45.636;11.752;2023-04-24T14:03:54;4.67;;;1.80;;
78053;SDS011;67726;45.636;11.752;2023-04-24T14:06:21;4.65;;;2.00;;
78053;SDS011;67726;45.636;11.752;2023-04-24T14:08:48;4.20;;;2.00;;
78053;SDS011;67726;45.636;11.752;2023-04-24T14:11:15;4.30;;;1.92;;
78053;SDS011;67726;45.636;11.752;2023-04-24T14:13:41;5.33;;;2.20;;
78053;SDS011;67726;45.636;11.752;2023-04-24T14:16:08;4.60;;;2.08;;
78053;SDS011;67726;45.636;11.752;2023-04-24T14:18:34;4.50;;;2.30;;
78053;SDS011;67726;45.636;11.752;2023-04-24T14:21:01;4.65;;;1.90;;
78053;SDS011;67726;45.636;11.752;2023-04-24T14:23:27;7.10;;;4.00;;
78053;SDS011;67726;45.636;11.752;2023-04-24T14:25:53;5.73;;;2.50;;
78053;SDS011;67726;45.636;11.752;2023-04-24T14:28:19;4.28;;;1.70;;
78053;SDS011;67726;45.636;11.752;2023-04-24T14:30:46;4.57;;;1.88;;